EmailTwitter


Surface observations / Quebec / CYHU (71371)

Regions: Quebec | Canada | USA | Europe | France | UK | Elsewhere
Station
Display
Info & Location for CYHU (71371) | Help decoding METAR

Weather Conditions observed on 2018/10/17 at 22:00 UTC at MONTREAL/ST HUBE, QB (CYHU)

Sky conditions: overcast.

Temperature: 7.0 Celsius.

Dewpoint: -4.0 Celsius.

Relative Humidity: 45%

Windchill Factor: 3.

Windchill Factor (Gusts): 2.

Winds: West-northwest at 22 km/h or 12 knots.

Gust: 33 km/h or 18 knots.

Mean Sea level Pressure: 100.91 kilopascals.

Altimeter Setting (QNH): 100.88 kilopascals or 29.79 inches of mercury.

Horizontal visibility: 9.00 statute miles or 14.40 kilometers.

Height of the Ceiling: 2896 metres ( 9500 feet ).

Coded METAR:

CYHU 172200Z AUTO 29012G18KT 9SM OVC095 07/M04 A2979 RMK SLP091=